createdAt,value
2022-10-11T00:01:17.137Z,102018.38
2022-10-11T00:03:43.517Z,102021.16
2022-10-11T00:06:10.158Z,102022.78
2022-10-11T00:08:36.752Z,102031.94
2022-10-11T00:11:07.247Z,102027.06
2022-10-11T00:13:34.545Z,102031.53
2022-10-11T00:16:01.577Z,102036.56
2022-10-11T00:18:28.205Z,102043.22
2022-10-11T00:21:03.189Z,102053.53
2022-10-11T00:23:29.599Z,102053.97
2022-10-11T00:26:00.812Z,102060.94
2022-10-11T00:28:27.675Z,102053.63
2022-10-11T00:30:54.259Z,102061.88
2022-10-11T00:33:20.830Z,102063.59
2022-10-11T00:35:48.643Z,102073.88
2022-10-11T00:38:15.528Z,102077.06
2022-10-11T00:40:41.872Z,102080.19
2022-10-11T00:43:24.471Z,102081.59
2022-10-11T00:45:56.808Z,102085.34
2022-10-11T00:48:27.589Z,102076.09
2022-10-11T00:50:57.337Z,102077.09
2022-10-11T00:53:24.474Z,102083.75
2022-10-11T00:55:58.964Z,102086.91
2022-10-11T00:58:25.668Z,102080.56
2022-10-11T01:00:53.240Z,102081.22
2022-10-11T01:03:22.889Z,102085.31
2022-10-11T01:05:49.542Z,102084.97
2022-10-11T01:08:16.245Z,102082.00
2022-10-11T01:10:42.629Z,102079.44
2022-10-11T01:13:34.997Z,102094.25
2022-10-11T01:16:14.188Z,102087.84
2022-10-11T01:19:22.128Z,102093.56
2022-10-11T01:21:57.675Z,102084.34
2022-10-11T01:25:09.192Z,102094.13
2022-10-11T01:28:02.021Z,102093.53
2022-10-11T01:30:36.989Z,102091.47
2022-10-11T01:33:35.274Z,102086.78
2022-10-11T01:36:14.200Z,102089.47
2022-10-11T01:39:06.705Z,102098.75
2022-10-11T01:41:46.223Z,102092.50
2022-10-11T01:44:13.488Z,102102.31
2022-10-11T01:46:41.361Z,102106.34
2022-10-11T01:49:07.837Z,102099.56
2022-10-11T01:51:47.455Z,102102.66
2022-10-11T01:55:08.643Z,102106.00
2022-10-11T01:57:48.608Z,102117.06
2022-10-11T02:00:20.794Z,102110.31
2022-10-11T02:03:06.234Z,102115.91
2022-10-11T02:05:56.252Z,102121.63
2022-10-11T02:08:33.746Z,102120.13
2022-10-11T02:11:22.086Z,102118.44
2022-10-11T02:13:59.801Z,102117.38
2022-10-11T02:16:36.808Z,102122.38
2022-10-11T02:19:06.385Z,102130.13
2022-10-11T02:21:36.119Z,102130.41
2022-10-11T02:24:09.076Z,102128.66
2022-10-11T02:26:39.175Z,102121.09
2022-10-11T02:29:09.741Z,102128.84
2022-10-11T02:31:37.145Z,102125.66
2022-10-11T02:34:14.748Z,102133.91
2022-10-11T02:36:51.033Z,102124.75
2022-10-11T02:39:26.476Z,102129.72
2022-10-11T02:41:56.465Z,102132.56
2022-10-11T02:44:31.888Z,102134.47
2022-10-11T02:47:00.226Z,102133.63
2022-10-11T02:49:29.382Z,102126.81
2022-10-11T02:51:56.828Z,102136.78
2022-10-11T02:54:24.771Z,102137.03
2022-10-11T02:56:51.674Z,102142.75
2022-10-11T02:59:18.392Z,102149.06
2022-10-11T03:01:44.863Z,102151.56
2022-10-11T03:04:11.299Z,102155.78
2022-10-11T03:06:37.710Z,102156.25
2022-10-11T03:09:04.312Z,102162.59
2022-10-11T03:11:30.657Z,102165.00
2022-10-11T03:13:57.055Z,102165.16
2022-10-11T03:16:23.396Z,102170.16
2022-10-11T03:18:49.908Z,102182.22
2022-10-11T03:21:16.294Z,102184.81
2022-10-11T03:23:42.747Z,102199.19
2022-10-11T03:26:09.606Z,102193.47
2022-10-11T03:28:36.479Z,102192.44
2022-10-11T03:31:03.288Z,102197.75
2022-10-11T03:33:29.693Z,102197.66
2022-10-11T03:35:56.109Z,102191.25
2022-10-11T03:38:23.028Z,102203.00
2022-10-11T03:40:49.390Z,102213.88
2022-10-11T03:43:16.225Z,102210.06
2022-10-11T03:45:42.645Z,102207.31
2022-10-11T03:48:09.583Z,102208.50
2022-10-11T03:50:36.666Z,102212.50
2022-10-11T03:53:03.745Z,102208.63
2022-10-11T03:55:30.114Z,102229.28
2022-10-11T03:57:56.741Z,102218.25
2022-10-11T04:00:23.311Z,102230.38
2022-10-11T04:02:49.719Z,102221.66
2022-10-11T04:05:16.448Z,102228.25
2022-10-11T04:07:43.164Z,102216.75
2022-10-11T04:10:09.744Z,102224.94
2022-10-11T04:12:38.417Z,102221.53
2022-10-11T04:15:06.504Z,102228.38
2022-10-11T04:17:33.065Z,102228.31
2022-10-11T04:19:59.428Z,102235.16
2022-10-11T04:22:25.804Z,102235.72
2022-10-11T04:24:52.123Z,102232.16
2022-10-11T04:27:18.691Z,102237.00
2022-10-11T04:29:45.014Z,102247.22
2022-10-11T04:32:11.657Z,102249.38
2022-10-11T04:34:38.163Z,102247.81
2022-10-11T04:37:04.684Z,102247.47
2022-10-11T04:39:31.021Z,102259.19
2022-10-11T04:41:57.411Z,102261.53
2022-10-11T04:44:23.737Z,102256.19
2022-10-11T04:46:50.292Z,102269.19
2022-10-11T04:49:16.619Z,102271.47
2022-10-11T04:51:42.991Z,102261.69
2022-10-11T04:54:09.344Z,102276.75
2022-10-11T04:56:35.779Z,102278.81
2022-10-11T04:59:02.114Z,102279.75
2022-10-11T05:01:28.857Z,102284.81
2022-10-11T05:03:55.185Z,102284.50
2022-10-11T05:06:21.624Z,102288.47
2022-10-11T05:08:47.934Z,102290.63
2022-10-11T05:11:17.004Z,102294.13
2022-10-11T05:13:44.888Z,102304.69
2022-10-11T05:16:12.703Z,102299.59
2022-10-11T05:18:40.229Z,102299.31
2022-10-11T05:21:16.013Z,102309.31
2022-10-11T05:23:42.676Z,102300.22
2022-10-11T05:26:09.528Z,102298.66
2022-10-11T05:28:36.630Z,102300.53
2022-10-11T05:31:03.660Z,102309.13
2022-10-11T05:33:31.179Z,102313.56
2022-10-11T05:35:57.593Z,102317.63
2022-10-11T05:38:24.421Z,102313.53
2022-10-11T05:40:51.236Z,102315.88
2022-10-11T05:43:17.997Z,102325.56
2022-10-11T05:45:44.757Z,102318.53
2022-10-11T05:48:11.369Z,102324.56
2022-10-11T05:50:38.683Z,102331.00
2022-10-11T05:53:05.800Z,102339.06
2022-10-11T05:55:39.460Z,102348.47
2022-10-11T05:58:07.295Z,102351.78
2022-10-11T06:00:40.113Z,102350.34
2022-10-11T06:03:08.271Z,102355.16
2022-10-11T06:05:35.585Z,102350.94
2022-10-11T06:08:03.548Z,102350.84
2022-10-11T06:10:29.914Z,102355.00
2022-10-11T06:12:56.350Z,102361.25
2022-10-11T06:15:22.717Z,102364.91
2022-10-11T06:17:49.106Z,102359.56
2022-10-11T06:20:15.703Z,102363.91
2022-10-11T06:22:42.653Z,102367.94
2022-10-11T06:25:09.367Z,102365.41
2022-10-11T06:27:35.958Z,102364.53
2022-10-11T06:30:03.034Z,102371.34
2022-10-11T06:32:29.426Z,102374.13
2022-10-11T06:34:55.771Z,102372.75
2022-10-11T06:37:22.194Z,102377.06
2022-10-11T06:39:50.277Z,102369.34
2022-10-11T06:42:16.791Z,102389.09
2022-10-11T06:44:43.164Z,102390.41
2022-10-11T06:47:09.651Z,102387.53
2022-10-11T06:49:36.013Z,102395.50
2022-10-11T06:52:02.371Z,102399.03
2022-10-11T06:54:28.768Z,102399.00
2022-10-11T06:56:55.192Z,102399.63
2022-10-11T06:59:21.526Z,102402.22
2022-10-11T07:01:48.060Z,102410.91
2022-10-11T07:04:14.391Z,102405.53
2022-10-11T07:06:41.455Z,102411.75
2022-10-11T07:09:08.623Z,102410.28
2022-10-11T07:11:35.546Z,102421.88
2022-10-11T07:14:07.439Z,102422.69
2022-10-11T07:16:37.357Z,102430.72
2022-10-11T07:19:06.021Z,102423.78
2022-10-11T07:21:34.088Z,102435.41
2022-10-11T07:24:01.456Z,102429.47
2022-10-11T07:26:31.346Z,102423.00
2022-10-11T07:29:00.567Z,102427.44
2022-10-11T07:31:27.242Z,102438.06
2022-10-11T07:33:53.977Z,102444.25
2022-10-11T07:36:20.509Z,102444.25
2022-10-11T07:38:47.589Z,102443.63
2022-10-11T07:41:14.668Z,102440.97
2022-10-11T07:43:43.328Z,102438.13
2022-10-11T07:46:11.346Z,102441.00
2022-10-11T07:48:38.755Z,102445.38
2022-10-11T07:51:20.464Z,102441.13
2022-10-11T07:53:49.049Z,102443.38
2022-10-11T07:56:18.595Z,102445.59
2022-10-11T07:58:50.292Z,102444.81
2022-10-11T08:01:17.430Z,102451.81
2022-10-11T08:03:43.923Z,102452.63
2022-10-11T08:06:14.166Z,102456.81
2022-10-11T08:08:40.501Z,102462.72
2022-10-11T08:11:07.531Z,102454.25
2022-10-11T08:13:36.811Z,102465.88
2022-10-11T08:16:10.514Z,102463.53
2022-10-11T08:18:40.097Z,102457.16
2022-10-11T08:21:09.187Z,102458.28
2022-10-11T08:23:36.032Z,102458.44
2022-10-11T08:26:02.985Z,102456.22
2022-10-11T08:28:29.830Z,102466.84
2022-10-11T08:30:56.446Z,102468.19
2022-10-11T08:33:24.210Z,102466.50
2022-10-11T08:35:51.800Z,102470.94
2022-10-11T08:38:19.369Z,102474.81
2022-10-11T08:40:55.602Z,102475.56
2022-10-11T08:43:29.333Z,102477.53
2022-10-11T08:45:59.722Z,102479.25
2022-10-11T08:48:34.470Z,102473.34
2022-10-11T08:51:01.305Z,102478.56
2022-10-11T08:53:45.941Z,102482.03
2022-10-11T08:56:14.694Z,102475.53
2022-10-11T08:58:52.108Z,102476.69
2022-10-11T09:01:23.860Z,102481.41
2022-10-11T09:03:51.626Z,102475.44
2022-10-11T09:06:24.182Z,102487.75
2022-10-11T09:09:12.471Z,102486.38
2022-10-11T09:11:47.276Z,102489.28
2022-10-11T09:14:41.699Z,102491.09
2022-10-11T09:17:25.421Z,102487.16
2022-10-11T09:20:03.675Z,102488.25
2022-10-11T09:22:59.558Z,102493.91
2022-10-11T09:25:48.099Z,102501.06
2022-10-11T09:28:28.697Z,102491.88
2022-10-11T09:30:57.998Z,102495.81
2022-10-11T09:33:41.125Z,102500.75
2022-10-11T09:36:28.772Z,102493.53
2022-10-11T09:39:13.924Z,102492.59
2022-10-11T09:41:56.269Z,102485.06
2022-10-11T09:44:25.852Z,102489.28
2022-10-11T09:46:54.979Z,102488.81
2022-10-11T09:49:25.319Z,102486.59
2022-10-11T09:51:57.831Z,102486.53
2022-10-11T09:54:38.857Z,102489.56
2022-10-11T09:57:05.571Z,102492.56
2022-10-11T09:59:34.988Z,102493.63
2022-10-11T10:02:13.514Z,102491.09
2022-10-11T10:05:00.745Z,102490.44
2022-10-11T10:07:28.973Z,102490.06
2022-10-11T10:09:55.550Z,102490.75
2022-10-11T10:12:26.036Z,102497.75
2022-10-11T10:15:04.786Z,102495.66
2022-10-11T10:17:31.773Z,102494.38
2022-10-11T10:20:00.486Z,102498.66
2022-10-11T10:22:30.640Z,102494.91
2022-10-11T10:24:59.536Z,102488.22
2022-10-11T10:27:28.576Z,102494.31
2022-10-11T10:30:15.824Z,102491.38
2022-10-11T10:32:52.122Z,102510.78
2022-10-11T10:35:49.354Z,102511.75
2022-10-11T10:38:26.405Z,102504.03
2022-10-11T10:40:58.902Z,102502.25
2022-10-11T10:43:32.003Z,102500.50
2022-10-11T10:46:16.708Z,102507.47
2022-10-11T10:51:52.752Z,102511.59
2022-10-11T10:54:40.558Z,102512.06
2022-10-11T10:57:23.224Z,102509.53
2022-10-11T11:00:19.497Z,102509.56
2022-10-11T11:03:05.725Z,102513.53
2022-10-11T11:05:41.223Z,102524.50
2022-10-11T11:08:19.672Z,102513.53
2022-10-11T11:11:28.041Z,102506.66
2022-10-11T11:14:15.667Z,102511.28
2022-10-11T11:17:12.638Z,102513.53
2022-10-11T11:20:00.415Z,102513.00
2022-10-11T11:22:55.903Z,102509.78
2022-10-11T11:25:30.642Z,102521.38
2022-10-11T11:28:18.309Z,102520.13
2022-10-11T11:31:10.078Z,102519.31
2022-10-11T11:33:48.775Z,102529.03
2022-10-11T11:36:42.306Z,102533.88
2022-10-11T11:39:19.189Z,102525.78
2022-10-11T11:41:53.600Z,102521.47
2022-10-11T11:44:28.046Z,102527.25
2022-10-11T11:47:06.572Z,102529.22
2022-10-11T11:49:39.458Z,102522.53
2022-10-11T11:52:12.778Z,102524.09
2022-10-11T11:54:54.709Z,102533.63
2022-10-11T11:57:46.003Z,102526.78
2022-10-11T12:00:19.942Z,102522.16
2022-10-11T12:03:00.269Z,102523.91
2022-10-11T12:05:31.981Z,102528.97
2022-10-11T12:08:08.319Z,102532.97
2022-10-11T12:10:54.455Z,102531.34
2022-10-11T12:13:31.171Z,102525.13
2022-10-11T12:16:04.475Z,102525.13
2022-10-11T12:18:32.325Z,102524.50
2022-10-11T12:21:08.418Z,102523.66
2022-10-11T12:23:41.465Z,102515.88
2022-10-11T12:26:41.192Z,102513.72
2022-10-11T12:29:40.748Z,102511.25
2022-10-11T12:32:07.005Z,102512.84
2022-10-11T12:34:42.755Z,102515.03
2022-10-11T12:37:18.673Z,102509.78
2022-10-11T12:39:59.600Z,102506.78
2022-10-11T12:42:36.721Z,102504.41
2022-10-11T12:45:12.251Z,102503.06
2022-10-11T12:47:43.300Z,102508.19
2022-10-11T12:50:19.921Z,102492.69
2022-10-11T12:52:55.360Z,102488.66
2022-10-11T12:55:35.109Z,102488.63
2022-10-11T12:58:21.520Z,102479.84
2022-10-11T13:00:51.420Z,102481.66
2022-10-11T13:03:32.653Z,102486.09
2022-10-11T13:06:01.883Z,102483.00
2022-10-11T13:08:37.391Z,102480.75
2022-10-11T13:11:10.206Z,102483.44
2022-10-11T13:13:44.466Z,102489.78
2022-10-11T13:16:19.271Z,102486.13
2022-10-11T13:18:48.805Z,102494.44
2022-10-11T13:21:28.160Z,102494.28
2022-10-11T13:23:58.037Z,102491.19
2022-10-11T13:26:26.739Z,102487.59
2022-10-11T13:28:53.383Z,102488.88
2022-10-11T13:31:19.834Z,102493.81
2022-10-11T13:33:46.501Z,102490.16
2022-10-11T13:36:17.722Z,102488.84
2022-10-11T13:38:57.981Z,102480.06
2022-10-11T13:41:29.716Z,102483.91
2022-10-11T13:43:58.086Z,102472.50
2022-10-11T13:46:27.011Z,102480.00
2022-10-11T13:49:06.945Z,102478.16
2022-10-11T13:51:36.996Z,102478.22
2022-10-11T13:54:13.157Z,102481.50
2022-10-11T13:56:49.735Z,102482.16
2022-10-11T13:59:22.713Z,102473.50
2022-10-11T14:01:50.872Z,102469.19
2022-10-11T14:04:17.541Z,102476.03
2022-10-11T14:06:58.242Z,102470.03
2022-10-11T14:09:27.782Z,102479.66
2022-10-11T14:11:55.051Z,102470.00
2022-10-11T14:14:30.272Z,102468.59
2022-10-11T14:16:59.097Z,102474.97
2022-10-11T14:19:25.888Z,102473.34
2022-10-11T14:21:53.265Z,102479.34
2022-10-11T14:24:20.623Z,102480.53
2022-10-11T14:26:49.951Z,102476.44
2022-10-11T14:29:24.909Z,102482.88
2022-10-11T14:31:52.357Z,102482.59
2022-10-11T14:34:21.994Z,102485.78
2022-10-11T14:36:49.575Z,102487.94
2022-10-11T14:39:27.641Z,102481.31
2022-10-11T14:41:54.367Z,102485.41
2022-10-11T14:44:21.968Z,102484.53
2022-10-11T14:46:50.262Z,102493.97
2022-10-11T14:49:19.565Z,102485.69
2022-10-11T14:51:48.033Z,102487.56
2022-10-11T14:54:16.002Z,102491.34
2022-10-11T14:56:42.383Z,102490.97
2022-10-11T14:59:14.151Z,102483.47
2022-10-11T15:01:40.602Z,102494.59
2022-10-11T15:04:07.064Z,102489.59
2022-10-11T15:06:38.567Z,102494.38
2022-10-11T15:09:06.589Z,102492.13
2022-10-11T15:11:36.359Z,102486.34
2022-10-11T15:14:02.897Z,102494.22
2022-10-11T15:16:29.301Z,102493.59
2022-10-11T15:18:55.802Z,102491.50
2022-10-11T15:21:24.998Z,102494.22
2022-10-11T15:23:52.446Z,102494.78
2022-10-11T15:26:21.850Z,102498.34
2022-10-11T15:28:50.352Z,102496.88
2022-10-11T15:31:18.065Z,102500.84
2022-10-11T15:33:44.697Z,102493.72
2022-10-11T15:36:13.612Z,102499.03
2022-10-11T15:38:40.670Z,102498.03
2022-10-11T15:41:08.400Z,102499.03
2022-10-11T15:43:34.739Z,102500.28
2022-10-11T15:46:02.592Z,102505.97
2022-10-11T15:48:29.107Z,102501.72
2022-10-11T15:50:55.780Z,102506.59
2022-10-11T15:53:26.164Z,102503.47
2022-10-11T15:55:54.545Z,102513.03
2022-10-11T15:58:24.007Z,102510.88
2022-10-11T16:00:56.363Z,102506.69
2022-10-11T16:03:25.664Z,102502.06
2022-10-11T16:05:53.476Z,102500.78
2022-10-11T16:08:20.348Z,102498.81
2022-10-11T16:10:46.744Z,102502.50
2022-10-11T16:13:13.569Z,102498.72
2022-10-11T16:15:41.843Z,102509.16
2022-10-11T16:18:10.825Z,102511.69
2022-10-11T16:20:42.716Z,102509.53
2022-10-11T16:23:09.818Z,102512.22
2022-10-11T16:25:36.636Z,102513.03
2022-10-11T16:28:04.111Z,102508.91
2022-10-11T16:30:30.457Z,102515.25
2022-10-11T16:32:57.118Z,102512.34
2022-10-11T16:35:23.510Z,102516.19
2022-10-11T16:37:50.153Z,102526.25
2022-10-11T16:40:19.003Z,102529.28
2022-10-11T16:42:46.580Z,102527.91
2022-10-11T16:45:15.538Z,102526.69
2022-10-11T16:47:42.809Z,102525.53
2022-10-11T16:50:10.240Z,102519.50
2022-10-11T16:52:36.600Z,102521.53
2022-10-11T16:55:03.507Z,102524.41
2022-10-11T16:57:29.834Z,102523.28
2022-10-11T16:59:56.446Z,102522.13
2022-10-11T17:02:31.404Z,102517.47
2022-10-11T17:04:58.787Z,102522.84
2022-10-11T17:07:25.266Z,102520.53
2022-10-11T17:09:51.722Z,102522.41
2022-10-11T17:12:21.088Z,102517.66
2022-10-11T17:14:48.185Z,102523.38
2022-10-11T17:17:15.583Z,102511.75
2022-10-11T17:19:45.386Z,102520.31
2022-10-11T17:22:13.803Z,102512.28
2022-10-11T17:24:40.335Z,102509.53
2022-10-11T17:27:07.048Z,102515.22
2022-10-11T17:29:33.729Z,102517.63
2022-10-11T17:32:00.209Z,102514.16
2022-10-11T17:34:26.651Z,102505.16
2022-10-11T17:36:53.049Z,102518.41
2022-10-11T17:39:22.318Z,102520.84
2022-10-11T17:41:49.599Z,102518.19
2022-10-11T17:44:18.957Z,102525.56
2022-10-11T17:46:45.973Z,102523.34
2022-10-11T17:49:13.166Z,102527.34
2022-10-11T17:51:41.201Z,102515.38
2022-10-11T17:54:12.379Z,102517.44
2022-10-11T17:56:40.702Z,102516.72
2022-10-11T17:59:08.553Z,102516.44
2022-10-11T18:01:35.716Z,102519.84
2022-10-11T18:04:04.840Z,102520.81
2022-10-11T18:06:37.336Z,102521.34
2022-10-11T18:09:04.219Z,102523.88
2022-10-11T18:11:31.487Z,102525.59
2022-10-11T18:13:59.089Z,102528.63
2022-10-11T18:16:28.547Z,102527.06
2022-10-11T18:18:57.220Z,102519.53
2022-10-11T18:21:27.719Z,102523.19
2022-10-11T18:24:02.197Z,102515.78
2022-10-11T18:26:30.794Z,102523.53
2022-10-11T18:28:58.009Z,102520.59
2022-10-11T18:31:29.772Z,102528.31
2022-10-11T18:33:56.656Z,102534.81
2022-10-11T18:36:26.002Z,102533.00
2022-10-11T18:38:54.963Z,102531.06
2022-10-11T18:41:23.408Z,102524.94
2022-10-11T18:43:54.726Z,102531.34
2022-10-11T18:46:22.128Z,102517.06
2022-10-11T18:48:51.100Z,102522.25
2022-10-11T18:51:20.470Z,102523.16
2022-10-11T18:53:47.627Z,102526.41
2022-10-11T18:56:15.890Z,102524.56
2022-10-11T18:58:44.273Z,102525.56
2022-10-11T19:01:15.855Z,102531.28
2022-10-11T19:03:43.471Z,102531.34
2022-10-11T19:06:18.172Z,102528.72
2022-10-11T19:08:49.912Z,102528.69
2022-10-11T19:11:17.541Z,102525.59
2022-10-11T19:13:44.121Z,102526.31
2022-10-11T19:16:18.075Z,102530.19
2022-10-11T19:18:44.686Z,102519.41
2022-10-11T19:21:12.855Z,102530.53
2022-10-11T19:23:42.445Z,102528.53
2022-10-11T19:26:13.667Z,102526.22
2022-10-11T19:28:40.361Z,102529.94
2022-10-11T19:31:10.100Z,102528.97
2022-10-11T19:33:36.908Z,102530.59
2022-10-11T19:36:06.591Z,102531.56
2022-10-11T19:38:34.702Z,102535.19
2022-10-11T19:41:01.863Z,102533.84
2022-10-11T19:43:28.444Z,102534.28
2022-10-11T19:46:06.516Z,102528.84
2022-10-11T19:48:36.712Z,102530.59
2022-10-11T19:51:05.378Z,102530.50
2022-10-11T19:53:32.169Z,102530.66
2022-10-11T19:56:03.232Z,102540.53
2022-10-11T19:58:30.185Z,102534.13
2022-10-11T20:01:04.268Z,102522.75
2022-10-11T20:03:31.166Z,102528.78
2022-10-11T20:06:06.733Z,102530.31
2022-10-11T20:08:33.949Z,102534.69
2022-10-11T20:11:03.610Z,102535.97
2022-10-11T20:13:34.706Z,102538.38
2022-10-11T20:16:07.337Z,102540.09
2022-10-11T20:18:33.745Z,102537.59
2022-10-11T20:21:03.768Z,102535.25
2022-10-11T20:23:31.363Z,102534.63
2022-10-11T20:26:24.294Z,102534.84
2022-10-11T20:28:55.930Z,102529.38
2022-10-11T20:31:28.078Z,102530.16
2022-10-11T20:34:03.440Z,102535.63
2022-10-11T20:36:33.131Z,102541.28
2022-10-11T20:39:03.065Z,102534.34
2022-10-11T20:41:32.409Z,102536.59
2022-10-11T20:44:00.596Z,102532.34
2022-10-11T20:46:29.900Z,102531.50
2022-10-11T20:49:01.900Z,102538.50
2022-10-11T20:51:30.332Z,102530.91
2022-10-11T20:53:56.938Z,102536.72
2022-10-11T20:56:23.710Z,102536.81
2022-10-11T20:58:52.663Z,102546.03
2022-10-11T21:01:21.873Z,102548.00
2022-10-11T21:03:48.407Z,102544.47
2022-10-11T21:06:14.765Z,102548.19
2022-10-11T21:08:41.601Z,102544.69
2022-10-11T21:11:08.693Z,102539.59
2022-10-11T21:13:35.300Z,102548.38
2022-10-11T21:16:12.302Z,102542.34
2022-10-11T21:18:38.918Z,102551.94
2022-10-11T21:21:07.592Z,102548.88
2022-10-11T21:23:34.516Z,102552.41
2022-10-11T21:26:06.349Z,102553.72
2022-10-11T21:28:33.284Z,102552.13
2022-10-11T21:31:04.565Z,102556.22
2022-10-11T21:33:31.724Z,102555.50
2022-10-11T21:35:58.228Z,102562.78
2022-10-11T21:38:24.584Z,102559.69
2022-10-11T21:40:50.972Z,102558.78
2022-10-11T21:43:17.362Z,102558.78
2022-10-11T21:45:43.744Z,102555.50
2022-10-11T21:48:10.282Z,102559.78
2022-10-11T21:50:36.621Z,102558.34
2022-10-11T21:53:03.020Z,102553.19
2022-10-11T21:55:29.395Z,102558.25
2022-10-11T21:57:55.970Z,102553.63
2022-10-11T22:00:22.317Z,102551.50
2022-10-11T22:02:48.736Z,102556.13
2022-10-11T22:05:15.240Z,102552.63
2022-10-11T22:07:41.855Z,102550.88
2022-10-11T22:10:08.272Z,102550.88
2022-10-11T22:12:35.027Z,102548.72
2022-10-11T22:15:01.484Z,102548.59
2022-10-11T22:17:28.005Z,102556.13
2022-10-11T22:19:54.363Z,102553.66
2022-10-11T22:22:20.751Z,102552.69
2022-10-11T22:24:47.096Z,102555.28
2022-10-11T22:27:13.607Z,102545.16
2022-10-11T22:29:39.932Z,102555.34
2022-10-11T22:32:06.301Z,102551.34
2022-10-11T22:34:33.237Z,102551.53
2022-10-11T22:36:59.616Z,102555.16
2022-10-11T22:39:25.947Z,102556.56
2022-10-11T22:41:53.836Z,102564.00
2022-10-11T22:44:20.413Z,102561.28
2022-10-11T22:46:46.914Z,102552.78
2022-10-11T22:49:13.248Z,102550.22
2022-10-11T22:51:39.752Z,102547.97
2022-10-11T22:54:06.086Z,102542.56
2022-10-11T22:56:32.628Z,102558.94
2022-10-11T22:58:59.485Z,102554.28
2022-10-11T23:01:25.859Z,102556.50
2022-10-11T23:03:52.236Z,102561.69
2022-10-11T23:06:18.866Z,102558.53
2022-10-11T23:08:45.265Z,102557.34
2022-10-11T23:11:13.812Z,102558.38
2022-10-11T23:13:40.308Z,102565.88
2022-10-11T23:16:08.819Z,102567.97
2022-10-11T23:18:35.517Z,102566.69
2022-10-11T23:21:02.642Z,102567.25
2022-10-11T23:23:29.405Z,102564.19
2022-10-11T23:26:11.385Z,102566.69
2022-10-11T23:28:38.118Z,102571.38
2022-10-11T23:31:11.942Z,102574.50
2022-10-11T23:33:38.319Z,102564.72
2022-10-11T23:36:05.487Z,102574.78
2022-10-11T23:38:31.947Z,102574.97
2022-10-11T23:40:58.464Z,102571.72
2022-10-11T23:43:24.799Z,102577.72
2022-10-11T23:45:51.288Z,102575.25
2022-10-11T23:48:17.641Z,102576.28
2022-10-11T23:50:44.236Z,102581.13
2022-10-11T23:53:10.679Z,102575.50
2022-10-11T23:55:37.059Z,102578.06
2022-10-11T23:58:03.401Z,102578.41
